Time;durP1;ratioP1;P1;durP2;ratioP2;P2;SDS_P1;SDS_P2;PMS_P1;PMS_P2;Temp;Humidity;BMP_temperature;BMP_pressure;BME280_temperature;BME280_humidity;BME280_pressure;Samples;Min_cycle;Max_cycle;Signal;HPM_P1;HPM_P2
2022/07/02 04:43:37;;;;;;;3.00;2.70;;;10.20;99.90;;;;;;5139792;27;20266;-85
2022/07/02 04:46:03;;;;;;;4.27;3.03;;;10.30;99.90;;;;;;5105509;28;20425;-85
2022/07/02 04:48:29;;;;;;;4.03;3.53;;;10.40;99.90;;;;;;5105742;28;20235;-85
2022/07/02 04:50:55;;;;;;;4.07;3.67;;;;;;;;;;5106372;28;20210;-85
2022/07/02 04:53:21;;;;;;;5.13;3.63;;;10.50;99.90;;;;;;5106648;28;20411;-85
2022/07/02 04:55:46;;;;;;;5.10;4.53;;;10.60;99.90;;;;;;5106262;28;20182;-85
2022/07/02 04:58:12;;;;;;;4.07;3.77;;;10.60;99.90;;;;;;5106289;28;20172;-85
2022/07/02 05:00:38;;;;;;;4.30;3.87;;;10.70;99.90;;;;;;5107235;28;20662;-85
2022/07/02 05:03:03;;;;;;;4.10;3.70;;;10.80;99.90;;;;;;5106501;28;20210;-85
2022/07/02 05:22:49;;;;;;;4.00;3.17;;;11.30;99.90;;;;;;5148667;27;20338;-85
2022/07/02 05:25:15;;;;;;;4.17;3.77;;;11.30;99.90;;;;;;5131236;28;20181;-86
2022/07/02 05:27:41;;;;;;;4.50;3.77;;;;;;;;;;5149262;28;20186;-86
2022/07/02 05:30:07;;;;;;;6.43;3.90;;;11.30;99.90;;;;;;5131570;28;20184;-85
2022/07/02 05:32:33;;;;;;;4.10;3.70;;;11.50;99.90;;;;;;5150001;28;20199;-86
2022/07/02 05:34:58;;;;;;;4.93;3.60;;;11.60;99.90;;;;;;5148698;28;20555;-85
2022/07/02 05:37:24;;;;;;;3.70;3.40;;;11.70;99.90;;;;;;5149628;27;20195;-86
2022/07/02 05:39:50;;;;;;;3.00;2.70;;;11.70;99.90;;;;;;5149364;28;20683;-86
2022/07/02 05:42:15;;;;;;;2.80;2.50;;;11.80;99.90;;;;;;5150840;28;20254;-85
2022/07/02 05:44:41;;;;;;;4.97;2.70;;;;;;;;;;5153408;28;20177;-85
2022/07/02 05:47:07;;;;;;;2.60;2.17;;;12.00;99.90;;;;;;5152169;28;20167;-85
2022/07/02 05:49:33;;;;;;;2.50;2.30;;;;;;;;;;5146136;28;20206;-85
2022/07/02 05:51:59;;;;;;;3.77;2.93;;;12.20;99.90;;;;;;5145559;28;20196;-85
2022/07/02 05:54:24;;;;;;;4.07;3.40;;;12.30;99.90;;;;;;5145879;28;20181;-85
2022/07/02 05:56:50;;;;;;;4.00;3.60;;;;;;;;;;5145528;28;20179;-85
2022/07/02 05:59:16;;;;;;;3.43;3.13;;;12.50;99.90;;;;;;5145385;28;20181;-85
2022/07/02 06:01:42;;;;;;;3.83;3.20;;;;;;;;;;5144960;28;20281;-84
2022/07/02 06:04:08;;;;;;;2.60;2.40;;;12.60;99.90;;;;;;5146218;28;20171;-85
2022/07/02 06:09:18;;;;;;;2.93;2.60;;;12.80;99.90;;;;;;5145739;28;20170;-85
2022/07/02 06:11:44;;;;;;;2.60;2.40;;;;;;;;;;5145167;27;20199;-85
2022/07/02 06:14:10;;;;;;;3.07;2.53;;;13.00;99.90;;;;;;5143898;28;20191;-84
2022/07/02 06:28:40;;;;;;;0.80;0.80;;;13.70;99.90;;;;;;5149113;27;20342;-85
2022/07/02 06:31:06;;;;;;;0.70;0.70;;;13.80;99.90;;;;;;5134779;28;20205;-85
2022/07/02 06:33:32;;;;;;;1.30;0.70;;;;;;;;;;5149136;28;20178;-85
2022/07/02 06:35:57;;;;;;;0.70;0.63;;;14.10;99.90;;;;;;5145597;28;20183;-83
2022/07/02 06:38:23;;;;;;;0.70;0.70;;;14.30;99.90;;;;;;5136034;28;20540;-86
2022/07/02 06:40:49;;;;;;;1.57;0.87;;;14.40;99.90;;;;;;5135106;28;20194;-82
2022/07/02 06:43:14;;;;;;;0.70;0.70;;;14.50;99.90;;;;;;5138370;27;20166;-85
2022/07/02 06:45:40;;;;;;;3.03;1.00;;;14.60;99.90;;;;;;5134983;28;20174;-82
2022/07/02 06:48:06;;;;;;;0.80;0.70;;;14.70;99.90;;;;;;5135134;28;20251;-82
2022/07/02 06:50:31;;;;;;;0.80;0.70;;;14.80;99.90;;;;;;5136231;28;20190;-83
2022/07/02 06:52:57;;;;;;;0.60;0.60;;;14.80;99.90;;;;;;5134414;28;20183;-85
2022/07/02 06:55:23;;;;;;;0.63;0.63;;;14.90;99.90;;;;;;5135979;27;20625;-84
2022/07/02 06:57:49;;;;;;;0.60;0.60;;;15.00;99.90;;;;;;5134499;28;20579;-85
2022/07/02 07:00:15;;;;;;;0.70;0.70;;;15.10;99.90;;;;;;5135383;28;20167;-84
2022/07/02 07:02:41;;;;;;;0.63;0.63;;;15.20;99.90;;;;;;5143290;28;20211;-84
2022/07/02 07:05:08;;;;;;;0.97;0.70;;;15.20;99.90;;;;;;5148669;28;20170;-84
2022/07/02 07:07:34;;;;;;;0.60;0.60;;;15.30;99.90;;;;;;5136268;27;20198;-84
2022/07/02 07:10:00;;;;;;;1.57;0.77;;;15.40;99.90;;;;;;5133766;28;20659;-85
2022/07/02 07:12:26;;;;;;;0.73;0.73;;;15.40;99.90;;;;;;5133515;28;20195;-84
2022/07/02 07:14:52;;;;;;;0.70;0.60;;;15.50;99.90;;;;;;5132913;28;20223;-84
2022/07/02 07:17:18;;;;;;;0.70;0.70;;;15.60;99.90;;;;;;5136885;27;20202;-84
2022/07/02 07:19:44;;;;;;;0.60;0.60;;;15.70;99.90;;;;;;5137894;27;20234;-83
2022/07/02 07:22:10;;;;;;;0.50;0.50;;;15.70;99.90;;;;;;5136555;28;20310;-85
2022/07/02 07:24:36;;;;;;;0.67;0.67;;;15.70;99.90;;;;;;5136839;28;20183;-82
2022/07/02 07:27:01;;;;;;;1.17;0.80;;;15.70;99.90;;;;;;5140205;27;20214;-86
2022/07/02 07:29:27;;;;;;;0.70;0.70;;;15.90;99.90;;;;;;5140601;28;20203;-83
2022/07/02 07:31:53;;;;;;;0.73;0.73;;;16.00;99.90;;;;;;5137463;28;20199;-85
2022/07/02 07:34:19;;;;;;;1.07;0.60;;;16.10;99.90;;;;;;5136774;28;20175;-85
2022/07/02 07:36:44;;;;;;;0.50;0.50;;;16.20;99.90;;;;;;5137240;28;20175;-86
2022/07/02 07:39:10;;;;;;;1.70;0.60;;;16.20;99.90;;;;;;5126468;28;20210;-81
2022/07/02 07:41:36;;;;;;;1.87;0.60;;;16.40;99.90;;;;;;5120143;28;20226;-81
2022/07/02 07:44:03;;;;;;;1.40;0.80;;;16.40;99.90;;;;;;5121515;28;20184;-83
2022/07/02 07:46:29;;;;;;;0.97;0.60;;;16.50;99.90;;;;;;5121261;28;20180;-84
2022/07/02 07:48:55;;;;;;;0.60;0.60;;;16.60;99.90;;;;;;5120765;28;20178;-85
2022/07/02 07:51:20;;;;;;;0.80;0.63;;;16.60;99.90;;;;;;5121978;28;20275;-85
2022/07/02 07:53:46;;;;;;;0.70;0.70;;;16.70;99.90;;;;;;5122463;28;20289;-85
2022/07/02 07:56:17;;;;;;;0.80;0.70;;;16.90;99.90;;;;;;5122371;28;20170;-84
2022/07/02 07:58:43;;;;;;;2.10;0.60;;;17.00;99.90;;;;;;5120197;28;20166;-80
2022/07/02 08:01:10;;;;;;;3.20;0.80;;;17.20;99.90;;;;;;5122413;28;20674;-82
2022/07/02 08:03:35;;;;;;;0.70;0.70;;;17.30;99.90;;;;;;5122151;28;20197;-83
2022/07/02 08:06:01;;;;;;;0.60;0.60;;;17.50;99.90;;;;;;5122326;28;20169;-80
2022/07/02 08:08:27;;;;;;;3.50;0.60;;;17.60;99.90;;;;;;5120983;28;20200;-82
2022/07/02 08:10:53;;;;;;;0.60;0.60;;;17.70;99.90;;;;;;5121624;28;20191;-82
2022/07/02 08:13:18;;;;;;;0.50;0.50;;;17.80;99.90;;;;;;5124097;28;20517;-82
2022/07/02 08:15:44;;;;;;;0.67;0.60;;;17.90;99.90;;;;;;5122572;28;20251;-83
2022/07/02 08:18:10;;;;;;;0.70;0.70;;;18.00;99.90;;;;;;5123609;28;20225;-85
2022/07/02 08:20:36;;;;;;;0.80;0.70;;;18.00;99.90;;;;;;5122651;28;20638;-82
2022/07/02 08:23:02;;;;;;;1.00;0.80;;;18.10;99.90;;;;;;5122475;28;20183;-84
2022/07/02 08:25:30;;;;;;;0.77;0.77;;;18.20;99.90;;;;;;5130821;28;20178;-84
2022/07/02 08:27:56;;;;;;;2.00;0.70;;;18.30;99.90;;;;;;5128794;28;20217;-81
2022/07/02 08:30:22;;;;;;;0.67;0.67;;;18.50;99.90;;;;;;5118017;28;20230;-82
2022/07/02 08:32:47;;;;;;;0.50;0.50;;;18.60;99.90;;;;;;5119084;28;20173;-81
2022/07/02 08:35:13;;;;;;;0.60;0.60;;;18.70;99.90;;;;;;5116551;28;20196;-82
2022/07/02 08:37:39;;;;;;;0.70;0.70;;;18.70;99.90;;;;;;5128341;28;20178;-81
2022/07/02 08:40:05;;;;;;;2.20;0.70;;;18.80;99.90;;;;;;5137197;28;20177;-81
2022/07/02 08:42:32;;;;;;;0.57;0.57;;;18.90;99.90;;;;;;5133646;28;20241;-82
2022/07/02 08:45:02;;;;;;;2.87;0.70;;;19.00;99.90;;;;;;5119387;28;20182;-81
2022/07/02 08:47:28;;;;;;;1.10;0.70;;;19.10;99.90;;;;;;5119061;28;20236;-82
2022/07/02 08:49:55;;;;;;;0.60;0.60;;;19.30;99.90;;;;;;5119985;28;20266;-87
2022/07/02 08:52:23;;;;;;;0.63;0.63;;;19.40;99.90;;;;;;5120144;28;20561;-80
2022/07/02 08:54:49;;;;;;;0.70;0.67;;;19.50;99.90;;;;;;5121780;28;20174;-83
2022/07/02 08:57:40;;;;;;;1.07;0.70;;;19.60;99.90;;;;;;5119827;28;20186;-83
2022/07/02 09:00:07;;;;;;;1.33;0.70;;;19.80;99.90;;;;;;5122248;28;20625;-84
2022/07/02 09:02:33;;;;;;;0.70;0.70;;;20.00;99.90;;;;;;5119601;28;20238;-85
2022/07/02 09:05:03;;;;;;;0.70;0.63;;;20.10;99.90;;;;;;5121282;28;20179;-83
2022/07/02 09:07:29;;;;;;;0.70;0.70;;;20.20;99.90;;;;;;5120356;28;20202;-82
2022/07/02 09:09:57;;;;;;;0.70;0.70;;;20.30;99.90;;;;;;5120275;28;20172;-87
2022/07/02 09:12:25;;;;;;;0.63;0.63;;;20.50;99.90;;;;;;5119515;28;20196;-85
2022/07/02 09:14:51;;;;;;;0.73;0.70;;;20.60;99.90;;;;;;5124176;28;20175;-82
2022/07/02 09:17:16;;;;;;;1.97;0.70;;;20.70;99.90;;;;;;5124323;28;20175;-86
2022/07/02 09:19:42;;;;;;;0.70;0.70;;;20.80;99.90;;;;;;5126234;28;20247;-83
2022/07/02 09:22:08;;;;;;;1.53;0.70;;;21.00;99.90;;;;;;5124837;28;20604;-84
2022/07/02 09:24:42;;;;;;;2.37;0.87;;;21.10;99.90;;;;;;5126693;27;20532;-86
2022/07/02 09:27:16;;;;;;;0.60;0.60;;;21.20;99.90;;;;;;5128153;28;20293;-86
2022/07/02 09:29:45;;;;;;;1.73;0.80;;;21.30;99.90;;;;;;5125044;28;20167;-82
2022/07/02 09:32:12;;;;;;;0.80;0.80;;;21.40;99.90;;;;;;5124185;28;20187;-81
2022/07/02 09:34:56;;;;;;;1.07;0.80;;;21.50;99.90;;;;;;5123391;28;20171;-80
2022/07/02 09:37:23;;;;;;;1.10;0.80;;;21.70;99.90;;;;;;5119863;28;20155;-82
2022/07/02 09:39:50;;;;;;;1.13;0.70;;;21.90;99.90;;;;;;5120527;28;20171;-82
2022/07/02 09:42:28;;;;;;;0.80;0.70;;;22.00;99.90;;;;;;5120766;28;20191;-84
2022/07/02 09:44:54;;;;;;;1.10;0.70;;;22.00;99.90;;;;;;5119148;28;20248;-83
2022/07/02 09:47:44;;;;;;;1.57;0.70;;;22.20;99.90;;;;;;5119970;28;20197;-82
2022/07/02 09:50:12;;;;;;;3.13;0.60;;;22.40;99.90;;;;;;5120504;28;20164;-82
2022/07/02 09:52:51;;;;;;;0.50;0.50;;;22.60;99.90;;;;;;5129612;28;20198;-82
2022/07/02 09:55:27;;;;;;;0.80;0.50;;;22.80;99.90;;;;;;5128228;28;20227;-82
2022/07/02 09:57:55;;;;;;;1.30;0.70;;;22.90;99.90;;;;;;5119911;28;20164;-82
2022/07/02 10:00:23;;;;;;;0.63;0.60;;;23.00;99.90;;;;;;5118578;28;20183;-85
2022/07/02 10:02:51;;;;;;;0.77;0.70;;;23.00;99.90;;;;;;5117455;28;20183;-83
2022/07/02 10:05:23;;;;;;;0.50;0.50;;;23.10;99.90;;;;;;5119368;28;20182;-82
2022/07/02 10:07:50;;;;;;;0.57;0.57;;;23.10;99.90;;;;;;5118452;28;20195;-83
2022/07/02 10:10:17;;;;;;;0.90;0.70;;;23.20;99.90;;;;;;5118340;28;20255;-85
2022/07/02 10:12:44;;;;;;;0.93;0.70;;;23.40;99.90;;;;;;5117928;28;20245;-84
2022/07/02 10:15:15;;;;;;;1.73;0.60;;;23.50;99.90;;;;;;5118967;28;20183;-86
2022/07/02 10:17:42;;;;;;;1.33;0.80;;;23.60;99.90;;;;;;5117493;28;20201;-86
2022/07/02 10:20:09;;;;;;;0.83;0.70;;;23.60;99.90;;;;;;5118833;28;20638;-86
2022/07/02 10:22:35;;;;;;;0.67;0.50;;;23.60;99.90;;;;;;5120426;28;20662;-84
2022/07/02 10:25:01;;;;;;;0.60;0.60;;;23.80;99.90;;;;;;5118217;28;20229;-84
2022/07/02 10:27:29;;;;;;;1.33;0.43;;;23.80;99.90;;;;;;5117583;28;20218;-85
2022/07/02 10:29:55;;;;;;;1.43;0.70;;;23.90;99.90;;;;;;5118249;28;20176;-87
2022/07/02 10:32:29;;;;;;;0.60;0.60;;;23.90;99.90;;;;;;5120231;28;20189;-86
2022/07/02 10:35:15;;;;;;;1.60;0.60;;;24.10;99.90;;;;;;5117881;28;20646;-87
2022/07/02 10:37:43;;;;;;;2.33;0.50;;;24.20;99.90;;;;;;5117975;28;20178;-87
2022/07/02 10:40:10;;;;;;;4.93;1.20;;;24.30;99.90;;;;;;5118933;28;20173;-87
2022/07/02 10:42:44;;;;;;;0.67;0.50;;;24.30;99.90;;;;;;5119232;28;20199;-87
2022/07/02 10:45:17;;;;;;;1.47;0.60;;;24.30;99.90;;;;;;5117091;28;20177;-86
2022/07/02 10:48:02;;;;;;;0.77;0.50;;;24.40;99.90;;;;;;5119041;28;20770;-86
2022/07/02 10:50:38;;;;;;;0.93;0.50;;;24.40;99.90;;;;;;5117917;28;20180;-86
2022/07/02 10:53:10;;;;;;;0.50;0.50;;;24.50;99.90;;;;;;5116761;28;20174;-87
2022/07/02 10:55:37;;;;;;;0.60;0.50;;;24.70;99.90;;;;;;5116167;28;20181;-86
2022/07/02 10:58:05;;;;;;;0.40;0.40;;;24.80;99.90;;;;;;5121003;28;20172;-86
2022/07/02 11:00:40;;;;;;;1.27;0.53;;;24.90;99.90;;;;;;5135893;28;20188;-86
2022/07/02 11:03:13;;;;;;;0.53;0.50;;;25.10;99.90;;;;;;5139152;28;20154;-87
2022/07/02 11:05:50;;;;;;;1.67;0.60;;;25.20;99.90;;;;;;5122555;28;20172;-87
2022/07/02 11:08:44;;;;;;;1.73;0.67;;;25.20;99.90;;;;;;5122401;28;20618;-87
2022/07/02 11:11:22;;;;;;;0.83;0.50;;;25.30;99.90;;;;;;5124063;28;20198;-87
2022/07/02 11:13:58;;;;;;;1.03;0.50;;;25.20;99.90;;;;;;5129785;28;20178;-87
2022/07/02 11:16:31;;;;;;;0.93;0.60;;;25.40;99.90;;;;;;5137499;28;20549;-87
2022/07/02 11:19:00;;;;;;;1.40;0.50;;;25.50;99.90;;;;;;5128768;28;20197;-86
2022/07/02 11:21:28;;;;;;;1.03;0.70;;;25.70;99.90;;;;;;5124282;28;20545;-85
2022/07/02 11:23:53;;;;;;;0.50;0.50;;;25.90;99.90;;;;;;5123440;28;20179;-87
2022/07/02 11:26:21;;;;;;;0.50;0.50;;;26.10;99.90;;;;;;5125840;28;20168;-87
2022/07/02 11:28:48;;;;;;;1.53;0.53;;;26.20;99.90;;;;;;5123222;28;20178;-86
2022/07/02 11:31:14;;;;;;;0.63;0.60;;;26.40;99.90;;;;;;5122306;28;20267;-87
2022/07/02 11:33:53;;;;;;;0.60;0.60;;;26.60;99.90;;;;;;5123038;28;20207;-87
2022/07/02 11:36:19;;;;;;;0.60;0.50;;;26.70;99.90;;;;;;5124278;28;20598;-87
2022/07/02 11:38:46;;;;;;;1.20;0.60;;;26.70;99.90;;;;;;5124041;28;20629;-86
2022/07/02 11:41:23;;;;;;;0.87;0.70;;;26.80;99.90;;;;;;5124249;28;20207;-86
2022/07/02 11:43:54;;;;;;;0.50;0.50;;;26.90;99.90;;;;;;5124667;28;20236;-87
2022/07/02 11:46:22;;;;;;;0.80;0.53;;;26.80;99.90;;;;;;5126975;28;20170;-86
2022/07/02 11:48:49;;;;;;;0.80;0.70;;;26.90;99.90;;;;;;5125109;28;20173;-86
2022/07/02 11:51:17;;;;;;;3.23;1.60;;;26.90;99.90;;;;;;5122159;28;20291;-85
2022/07/02 11:53:42;;;;;;;1.50;1.30;;;27.00;99.90;;;;;;5121945;28;20177;-85
2022/07/02 11:56:15;;;;;;;0.70;0.70;;;27.10;99.90;;;;;;5121217;28;20251;-87
2022/07/02 11:58:46;;;;;;;0.73;0.70;;;27.20;99.90;;;;;;5121142;28;20173;-86
2022/07/02 12:01:26;;;;;;;1.03;0.60;;;27.30;99.90;;;;;;5122370;28;20614;-86
2022/07/02 12:03:55;;;;;;;1.23;0.60;;;27.30;99.90;;;;;;5121465;28;20180;-86
2022/07/02 12:06:23;;;;;;;0.67;0.60;;;27.30;99.90;;;;;;5120452;28;20179;-84
2022/07/02 12:08:52;;;;;;;2.80;0.70;;;27.30;99.90;;;;;;5120258;28;20185;-88
2022/07/02 12:11:20;;;;;;;0.97;0.70;;;27.40;99.90;;;;;;5123222;28;20195;-83
2022/07/02 12:13:46;;;;;;;0.80;0.70;;;27.40;99.90;;;;;;5125784;28;20205;-84
2022/07/02 12:16:13;;;;;;;0.80;0.80;;;27.50;99.90;;;;;;5124471;28;20180;-86
2022/07/02 12:18:40;;;;;;;0.77;0.70;;;27.60;99.90;;;;;;5125559;28;20179;-82
2022/07/02 12:21:19;;;;;;;1.87;0.80;;;27.70;99.90;;;;;;5123931;28;20719;-83
2022/07/02 12:23:49;;;;;;;0.60;0.60;;;27.80;99.90;;;;;;5124961;27;20165;-83
2022/07/02 12:26:25;;;;;;;0.80;0.80;;;27.80;99.90;;;;;;5125453;28;20176;-86
2022/07/02 12:32:16;;;;;;;0.80;0.80;;;28.00;99.90;;;;;;5125619;28;20201;-84
2022/07/02 12:35:10;;;;;;;0.70;0.70;;;28.10;99.90;;;;;;5125395;28;20167;-84
2022/07/02 12:37:43;;;;;;;1.47;0.70;;;28.00;99.90;;;;;;5120150;28;20206;-82
2022/07/02 12:40:14;;;;;;;0.90;0.60;;;28.00;99.90;;;;;;5123676;28;20257;-83
2022/07/02 12:42:54;;;;;;;1.13;0.70;;;28.00;99.90;;;;;;5122590;28;20202;-85
2022/07/02 12:45:29;;;;;;;0.80;0.60;;;28.10;99.90;;;;;;5134719;28;20167;-83
2022/07/02 12:48:04;;;;;;;0.70;0.70;;;28.20;99.90;;;;;;5137207;28;20161;-84
2022/07/02 12:50:35;;;;;;;1.03;0.70;;;28.40;99.90;;;;;;5126250;28;20242;-82
2022/07/02 12:53:05;;;;;;;1.00;0.87;;;28.30;99.90;;;;;;5121571;28;20175;-85
2022/07/02 12:55:33;;;;;;;1.73;0.90;;;28.30;99.90;;;;;;5119312;28;20179;-85
2022/07/02 12:58:01;;;;;;;0.93;0.80;;;28.40;99.90;;;;;;5119050;28;20201;-82
2022/07/02 13:00:29;;;;;;;1.07;0.80;;;28.40;99.90;;;;;;5119074;28;20261;-83
2022/07/02 13:03:12;;;;;;;0.80;0.80;;;28.40;99.90;;;;;;5119500;28;20644;-85
2022/07/02 13:05:43;;;;;;;0.70;0.70;;;28.30;99.90;;;;;;5120420;28;20176;-83
2022/07/02 13:08:10;;;;;;;15.37;2.40;;;28.50;99.90;;;;;;5121444;28;20163;-82
2022/07/02 13:10:37;;;;;;;2.43;0.60;;;28.60;99.90;;;;;;5117356;27;20175;-82
2022/07/02 13:13:03;;;;;;;1.10;0.70;;;28.70;99.90;;;;;;5115119;28;20269;-83
2022/07/02 13:15:30;;;;;;;1.00;0.60;;;28.80;99.90;;;;;;5128304;28;20172;-82
2022/07/02 13:17:56;;;;;;;1.23;0.80;;;28.80;99.90;;;;;;5137779;28;20216;-83
2022/07/02 13:20:22;;;;;;;0.63;0.63;;;28.90;99.90;;;;;;5125878;28;20175;-83
2022/07/02 13:22:48;;;;;;;0.87;0.73;;;28.90;99.90;;;;;;5121576;28;20664;-83
2022/07/02 13:25:15;;;;;;;2.83;0.63;;;28.80;99.90;;;;;;5120227;28;20172;-83
2022/07/02 13:27:41;;;;;;;1.10;0.73;;;28.70;99.90;;;;;;5120031;28;20207;-84
2022/07/02 13:30:09;;;;;;;0.73;0.73;;;28.60;99.90;;;;;;5120082;28;20179;-83
2022/07/02 13:32:36;;;;;;;1.77;0.70;;;28.60;99.90;;;;;;5121483;28;20227;-83
2022/07/02 13:35:03;;;;;;;0.70;0.70;;;28.60;98.00;;;;;;5120092;28;20203;-82
2022/07/02 13:37:28;;;;;;;0.70;0.70;;;28.60;99.90;;;;;;5118384;28;20684;-83
2022/07/02 13:39:54;;;;;;;0.80;0.80;;;28.70;99.90;;;;;;5120854;28;20175;-82
2022/07/02 13:42:20;;;;;;;1.57;0.93;;;28.70;99.90;;;;;;5121457;28;20197;-84
2022/07/02 13:44:46;;;;;;;1.97;0.80;;;28.70;99.90;;;;;;5122786;28;20574;-84
2022/07/02 13:47:11;;;;;;;1.93;1.03;;;28.80;99.90;;;;;;5121311;28;20210;-84
2022/07/02 13:49:37;;;;;;;0.90;0.90;;;28.90;98.80;;;;;;5121608;28;20178;-84
2022/07/02 13:52:04;;;;;;;1.03;0.90;;;28.80;99.20;;;;;;5121926;28;20205;-85
2022/07/02 13:54:29;;;;;;;1.13;0.90;;;28.80;99.90;;;;;;5121989;28;20239;-84
2022/07/02 13:56:55;;;;;;;0.87;0.77;;;28.90;98.80;;;;;;5121622;28;20615;-83
2022/07/02 13:59:21;;;;;;;0.77;0.77;;;28.80;99.90;;;;;;5121599;28;20180;-83
2022/07/02 14:01:47;;;;;;;2.20;0.87;;;28.90;99.90;;;;;;5121465;28;20245;-87
2022/07/02 14:04:12;;;;;;;1.43;0.60;;;28.80;99.90;;;;;;5122346;28;20213;-85
2022/07/02 14:06:38;;;;;;;0.63;0.63;;;28.80;99.90;;;;;;5123198;28;20615;-84
2022/07/02 14:09:04;;;;;;;0.83;0.80;;;28.80;99.90;;;;;;5122920;28;20175;-87
2022/07/02 14:11:30;;;;;;;1.13;0.80;;;28.90;97.70;;;;;;5124793;28;20215;-86
2022/07/02 14:13:56;;;;;;;0.80;0.80;;;28.70;99.90;;;;;;5122976;28;20173;-84
2022/07/02 14:16:22;;;;;;;2.73;0.90;;;28.50;97.20;;;;;;5118693;28;20179;-87
2022/07/02 14:18:48;;;;;;;0.80;0.80;;;28.40;99.70;;;;;;5121580;28;20221;-87
2022/07/02 14:21:14;;;;;;;6.03;0.90;;;28.50;99.90;;;;;;5124583;28;20218;-86
2022/07/02 14:23:40;;;;;;;1.47;0.70;;;28.50;99.90;;;;;;5125715;28;20189;-85
2022/07/02 14:26:06;;;;;;;0.83;0.83;;;28.50;99.90;;;;;;5126805;28;20174;-85
2022/07/02 14:28:34;;;;;;;0.60;0.60;;;28.50;99.90;;;;;;5132326;28;20198;-84
2022/07/02 14:31:00;;;;;;;1.13;0.80;;;28.40;99.90;;;;;;5136427;28;20222;-85
2022/07/02 14:33:26;;;;;;;1.60;0.80;;;28.50;99.90;;;;;;5130190;28;20603;-86
2022/07/02 14:35:57;;;;;;;0.80;0.77;;;28.40;99.90;;;;;;5123074;28;20181;-84
2022/07/02 14:38:23;;;;;;;0.60;0.60;;;28.30;99.90;;;;;;5120877;28;20653;-85
2022/07/02 14:40:49;;;;;;;0.67;0.67;;;28.30;99.90;;;;;;5122565;28;20242;-85
2022/07/02 14:43:15;;;;;;;7.90;0.93;;;28.30;99.90;;;;;;5123417;28;20182;-85
2022/07/02 14:45:41;;;;;;;0.80;0.80;;;28.30;99.50;;;;;;5123261;28;20203;-84
2022/07/02 14:48:08;;;;;;;1.53;1.00;;;28.30;99.90;;;;;;5123051;28;20192;-84
2022/07/02 14:50:34;;;;;;;2.30;0.90;;;28.10;99.60;;;;;;5122580;28;20183;-87
2022/07/02 14:53:01;;;;;;;1.47;0.80;;;28.10;99.60;;;;;;5123077;28;20176;-86
2022/07/02 14:55:27;;;;;;;2.10;1.00;;;28.10;99.90;;;;;;5123585;28;20179;-87
2022/07/02 14:57:53;;;;;;;1.47;0.80;;;28.10;98.70;;;;;;5124089;28;20192;-87
2022/07/02 15:00:19;;;;;;;2.50;0.80;;;28.10;99.90;;;;;;5124880;28;20633;-86
2022/07/02 15:02:44;;;;;;;0.80;0.60;;;28.10;99.90;;;;;;5125558;27;20187;-86
2022/07/02 15:05:10;;;;;;;0.93;0.80;;;28.10;99.90;;;;;;5123691;28;20267;-86
2022/07/02 15:07:37;;;;;;;1.40;1.23;;;28.10;99.90;;;;;;5123513;28;20186;-85
2022/07/02 15:10:07;;;;;;;3.60;0.90;;;28.10;99.80;;;;;;5122206;28;20183;-85
2022/07/02 15:12:33;;;;;;;0.73;0.70;;;28.00;99.90;;;;;;5122979;28;20192;-87
2022/07/02 15:17:42;;;;;;;1.27;0.83;;;27.90;99.90;;;;;;5120910;28;20592;-86
2022/07/02 15:20:09;;;;;;;4.57;0.80;;;27.80;98.60;;;;;;5121604;28;20164;-86
2022/07/02 15:22:46;;;;;;;0.60;0.60;;;27.70;99.90;;;;;;5119664;28;20192;-86
2022/07/02 15:25:18;;;;;;;1.10;1.00;;;27.60;99.10;;;;;;5118679;28;20175;-86
2022/07/02 15:27:47;;;;;;;1.10;0.90;;;27.60;99.90;;;;;;5123566;28;20201;-87
2022/07/02 15:30:13;;;;;;;2.17;0.80;;;27.60;99.90;;;;;;5138326;28;20222;-90
2022/07/02 15:32:43;;;;;;;2.00;0.70;;;27.60;99.90;;;;;;5142661;28;20183;-86
2022/07/02 15:35:10;;;;;;;1.80;0.90;;;27.50;99.90;;;;;;5122188;28;20197;-86
2022/07/02 15:37:38;;;;;;;1.40;1.00;;;27.50;99.00;;;;;;5121806;28;20561;-87
2022/07/02 15:40:05;;;;;;;0.70;0.70;;;27.40;99.70;;;;;;5122308;28;20180;-86
2022/07/02 15:42:32;;;;;;;2.87;0.80;;;27.40;99.90;;;;;;5121623;28;20258;-87
2022/07/02 15:44:58;;;;;;;0.87;0.70;;;27.30;98.90;;;;;;5122871;28;20176;-87
2022/07/02 15:47:25;;;;;;;0.60;0.60;;;27.20;98.80;;;;;;5123969;28;20594;-85
2022/07/02 15:49:51;;;;;;;3.13;0.83;;;27.10;99.10;;;;;;5127819;28;20164;-87
2022/07/02 15:52:37;;;;;;;1.47;1.20;;;27.10;99.90;;;;;;5128116;27;20217;-86
2022/07/02 15:55:09;;;;;;;2.70;0.90;;;27.20;99.90;;;;;;5126216;28;20263;-86
2022/07/02 15:57:49;;;;;;;2.60;0.90;;;27.10;99.90;;;;;;5125698;28;20238;-86
2022/07/02 16:00:15;;;;;;;1.47;0.93;;;27.00;99.60;;;;;;5127800;28;20164;-86
2022/07/02 16:02:42;;;;;;;1.87;1.30;;;26.90;99.90;;;;;;5128848;27;20195;-86
2022/07/02 16:05:08;;;;;;;1.00;0.80;;;26.80;99.90;;;;;;5124337;28;20171;-87
2022/07/02 16:07:44;;;;;;;1.87;0.67;;;26.60;99.10;;;;;;5129366;28;20180;-85
2022/07/02 16:10:10;;;;;;;0.80;0.60;;;26.60;98.60;;;;;;5136002;28;20185;-83
2022/07/02 16:12:35;;;;;;;0.70;0.67;;;26.40;99.80;;;;;;5137885;28;20204;-84
2022/07/02 16:15:02;;;;;;;2.60;0.80;;;26.30;99.90;;;;;;5136204;28;20215;-87
2022/07/02 16:17:28;;;;;;;1.77;0.80;;;26.20;99.90;;;;;;5118936;28;20207;-86
2022/07/02 16:19:56;;;;;;;1.07;0.77;;;25.90;99.90;;;;;;5120283;28;20178;-88
2022/07/02 16:22:22;;;;;;;1.03;0.80;;;25.70;99.60;;;;;;5122270;28;20198;-85
2022/07/02 16:24:47;;;;;;;0.70;0.70;;;25.50;99.90;;;;;;5122665;28;20182;-87
2022/07/02 16:27:13;;;;;;;0.97;0.90;;;25.30;99.90;;;;;;5122549;28;20221;-86
2022/07/02 16:29:39;;;;;;;1.30;0.87;;;25.00;99.90;;;;;;5124248;28;20186;-86
2022/07/02 16:32:06;;;;;;;3.53;0.90;;;24.80;99.90;;;;;;5123837;28;20216;-86
2022/07/02 16:35:11;;;;;;;0.70;0.70;;;24.60;99.90;;;;;;5124106;28;20238;-86
2022/07/02 16:37:39;;;;;;;2.40;0.97;;;24.40;99.90;;;;;;5067593;28;20206;-86
2022/07/02 16:40:08;;;;;;;2.20;0.93;;;24.20;99.90;;;;;;5115646;28;20214;-87
2022/07/02 16:42:36;;;;;;;2.80;1.10;;;24.00;99.90;;;;;;5122944;28;20206;-87
2022/07/02 16:45:07;;;;;;;2.20;1.10;;;23.80;99.90;;;;;;5126355;28;20200;-86
2022/07/02 16:47:38;;;;;;;1.10;0.80;;;23.60;99.90;;;;;;5124972;28;20189;-84
2022/07/02 16:50:07;;;;;;;1.67;0.80;;;23.40;99.90;;;;;;5127138;28;20262;-85
2022/07/02 16:52:45;;;;;;;1.63;1.13;;;23.30;99.90;;;;;;5124547;28;20197;-86
2022/07/02 16:55:13;;;;;;;1.87;0.97;;;23.20;99.90;;;;;;5126461;28;20172;-85
2022/07/02 16:57:38;;;;;;;0.83;0.80;;;23.10;99.90;;;;;;5125209;28;20200;-85
2022/07/02 17:00:07;;;;;;;1.00;0.90;;;23.00;99.90;;;;;;5122975;28;20541;-87
2022/07/02 17:02:34;;;;;;;1.40;1.10;;;22.90;99.90;;;;;;5123882;28;20262;-86
2022/07/02 17:05:01;;;;;;;1.30;1.17;;;22.80;99.90;;;;;;5123881;28;20227;-86
2022/07/02 17:07:27;;;;;;;1.20;1.10;;;22.70;99.90;;;;;;5125435;28;20179;-84
2022/07/02 17:09:53;;;;;;;2.03;1.20;;;22.70;99.90;;;;;;5122978;28;20184;-85
2022/07/02 17:12:19;;;;;;;2.13;1.30;;;22.70;99.90;;;;;;5120632;28;20200;-86
2022/07/02 17:14:45;;;;;;;1.13;0.90;;;22.60;99.90;;;;;;5125209;28;20224;-86
2022/07/02 17:17:12;;;;;;;3.27;1.07;;;22.60;99.90;;;;;;5122017;28;20700;-87
2022/07/02 17:19:38;;;;;;;1.17;1.00;;;22.50;99.90;;;;;;5122961;28;20176;-87
2022/07/02 17:22:05;;;;;;;1.37;1.10;;;22.40;99.90;;;;;;5124048;28;20192;-86
2022/07/02 17:24:31;;;;;;;0.73;0.73;;;22.40;99.90;;;;;;5121834;28;20261;-86
2022/07/02 17:26:57;;;;;;;1.30;1.10;;;22.30;99.90;;;;;;5121323;28;20202;-84
2022/07/02 17:29:22;;;;;;;1.37;1.27;;;22.30;99.90;;;;;;5120921;28;20179;-86
2022/07/02 17:31:49;;;;;;;2.40;1.00;;;22.20;99.90;;;;;;5120119;28;20204;-85
2022/07/02 17:34:15;;;;;;;2.50;1.20;;;22.20;99.90;;;;;;5119355;28;20191;-85
2022/07/02 17:36:41;;;;;;;2.73;1.43;;;22.10;99.90;;;;;;5118124;28;20184;-84
2022/07/02 17:39:07;;;;;;;1.50;1.40;;;22.10;99.90;;;;;;5118244;28;20179;-84
2022/07/02 17:41:33;;;;;;;5.80;1.30;;;22.10;99.90;;;;;;5129380;28;20203;-86
2022/07/02 17:43:59;;;;;;;1.03;1.03;;;22.00;99.90;;;;;;5140085;28;20156;-86
2022/07/02 17:46:25;;;;;;;2.03;0.90;;;21.90;99.90;;;;;;5134637;28;20173;-86
2022/07/02 17:48:50;;;;;;;3.17;1.17;;;21.90;99.90;;;;;;5125920;28;20187;-85
2022/07/02 17:51:17;;;;;;;2.77;1.30;;;21.90;99.90;;;;;;5127540;28;20195;-87
2022/07/02 17:53:46;;;;;;;1.97;1.20;;;21.80;99.90;;;;;;5138530;28;20214;-87
2022/07/02 17:56:12;;;;;;;1.67;1.47;;;21.80;99.90;;;;;;5137451;28;20255;-87
2022/07/02 17:58:38;;;;;;;3.47;1.20;;;21.70;99.90;;;;;;5122505;28;20290;-87
2022/07/02 18:01:05;;;;;;;2.93;1.50;;;21.70;99.90;;;;;;5121553;28;20772;-85
2022/07/02 18:03:31;;;;;;;1.10;1.00;;;21.70;99.90;;;;;;5119498;28;20179;-87
2022/07/02 18:05:57;;;;;;;2.67;1.20;;;21.60;99.90;;;;;;5118325;28;20178;-87
2022/07/02 18:08:23;;;;;;;1.30;1.20;;;21.60;99.90;;;;;;5118485;28;20187;-87
2022/07/02 18:10:49;;;;;;;2.03;1.30;;;21.50;99.90;;;;;;5120432;28;20260;-86
2022/07/02 18:13:15;;;;;;;1.30;1.10;;;;;;;;;;5123722;28;20214;-86
2022/07/02 18:15:43;;;;;;;2.27;1.03;;;21.50;99.90;;;;;;5121219;28;20187;-85